sensor_id;sensor_type;location;lat;lon;timestamp;pressure;altitude;pressure_sealevel;temperature;humidity
3796;BME280;1913;50.660;7.834;2023-02-21T00:02:16;97594.44;;;6.51;100.00
3796;BME280;1913;50.660;7.834;2023-02-21T00:05:00;97597.53;;;6.54;100.00
3796;BME280;1913;50.660;7.834;2023-02-21T00:07:43;97588.75;;;6.55;100.00
3796;BME280;1913;50.660;7.834;2023-02-21T00:10:27;97588.53;;;6.65;100.00
3796;BME280;1913;50.660;7.834;2023-02-21T00:13:11;97591.63;;;6.68;100.00
3796;BME280;1913;50.660;7.834;2023-02-21T00:15:56;97594.88;;;6.79;100.00
3796;BME280;1913;50.660;7.834;2023-02-21T00:18:40;97589.03;;;6.68;100.00
3796;BME280;1913;50.660;7.834;2023-02-21T00:21:27;97579.19;;;6.79;100.00
3796;BME280;1913;50.660;7.834;2023-02-21T00:24:17;97592.25;;;6.79;100.00
3796;BME280;1913;50.660;7.834;2023-02-21T00:27:01;97591.25;;;6.88;100.00
3796;BME280;1913;50.660;7.834;2023-02-21T00:29:46;97589.13;;;6.91;100.00
3796;BME280;1913;50.660;7.834;2023-02-21T00:32:30;97589.91;;;7.00;100.00
3796;BME280;1913;50.660;7.834;2023-02-21T00:35:14;97587.63;;;6.97;100.00
3796;BME280;1913;50.660;7.834;2023-02-21T00:37:58;97589.22;;;7.06;100.00
3796;BME280;1913;50.660;7.834;2023-02-21T00:40:42;97578.59;;;7.08;100.00
3796;BME280;1913;50.660;7.834;2023-02-21T00:43:31;97577.28;;;7.12;100.00
3796;BME280;1913;50.660;7.834;2023-02-21T00:46:15;97577.56;;;6.78;100.00
3796;BME280;1913;50.660;7.834;2023-02-21T00:49:00;97582.56;;;6.95;100.00
3796;BME280;1913;50.660;7.834;2023-02-21T00:51:44;97583.94;;;6.83;100.00
3796;BME280;1913;50.660;7.834;2023-02-21T00:54:28;97575.16;;;6.76;100.00
3796;BME280;1913;50.660;7.834;2023-02-21T00:57:12;97579.94;;;6.56;100.00
3796;BME280;1913;50.660;7.834;2023-02-21T00:59:57;97578.78;;;6.51;100.00
3796;BME280;1913;50.660;7.834;2023-02-21T01:02:41;97587.78;;;6.40;100.00
3796;BME280;1913;50.660;7.834;2023-02-21T01:05:25;97596.59;;;6.22;100.00
3796;BME280;1913;50.660;7.834;2023-02-21T01:08:09;97581.31;;;6.19;100.00
3796;BME280;1913;50.660;7.834;2023-02-21T01:10:53;97579.84;;;6.09;100.00
3796;BME280;1913;50.660;7.834;2023-02-21T01:13:37;97584.38;;;6.31;100.00
3796;BME280;1913;50.660;7.834;2023-02-21T01:16:21;97582.56;;;6.40;100.00
3796;BME280;1913;50.660;7.834;2023-02-21T01:19:05;97579.13;;;6.39;100.00
3796;BME280;1913;50.660;7.834;2023-02-21T01:21:49;97587.94;;;6.46;100.00
3796;BME280;1913;50.660;7.834;2023-02-21T01:24:33;97583.22;;;6.42;100.00
3796;BME280;1913;50.660;7.834;2023-02-21T01:27:18;97584.97;;;6.58;100.00
3796;BME280;1913;50.660;7.834;2023-02-21T01:30:03;97584.78;;;6.67;100.00
3796;BME280;1913;50.660;7.834;2023-02-21T01:32:47;97590.81;;;6.76;100.00
3796;BME280;1913;50.660;7.834;2023-02-21T01:35:31;97585.41;;;6.78;100.00
3796;BME280;1913;50.660;7.834;2023-02-21T01:38:15;97586.06;;;6.80;100.00
3796;BME280;1913;50.660;7.834;2023-02-21T01:40:59;97581.53;;;6.65;100.00
3796;BME280;1913;50.660;7.834;2023-02-21T01:44:00;97576.31;;;6.57;100.00
3796;BME280;1913;50.660;7.834;2023-02-21T01:46:45;97575.47;;;6.73;100.00
3796;BME280;1913;50.660;7.834;2023-02-21T01:49:30;97573.97;;;6.79;100.00
3796;BME280;1913;50.660;7.834;2023-02-21T01:52:16;97561.25;;;6.76;100.00
3796;BME280;1913;50.660;7.834;2023-02-21T01:55:01;97573.81;;;6.80;100.00
3796;BME280;1913;50.660;7.834;2023-02-21T01:57:45;97568.94;;;6.77;100.00
3796;BME280;1913;50.660;7.834;2023-02-21T02:00:29;97566.00;;;6.80;100.00
3796;BME280;1913;50.660;7.834;2023-02-21T02:03:16;97570.03;;;6.83;100.00
3796;BME280;1913;50.660;7.834;2023-02-21T02:06:07;97565.66;;;6.75;100.00
3796;BME280;1913;50.660;7.834;2023-02-21T02:08:52;97564.69;;;6.76;100.00
3796;BME280;1913;50.660;7.834;2023-02-21T02:11:50;97566.28;;;6.85;100.00
3796;BME280;1913;50.660;7.834;2023-02-21T02:15:05;97559.28;;;6.78;100.00
3796;BME280;1913;50.660;7.834;2023-02-21T02:25:25;97548.56;;;6.64;100.00
3796;BME280;1913;50.660;7.834;2023-02-21T02:31:11;97546.41;;;6.76;100.00
3796;BME280;1913;50.660;7.834;2023-02-21T02:36:48;97549.03;;;6.76;100.00
3796;BME280;1913;50.660;7.834;2023-02-21T02:39:26;97545.09;;;6.72;100.00
3796;BME280;1913;50.660;7.834;2023-02-21T02:44:38;97539.59;;;6.67;100.00
3796;BME280;1913;50.660;7.834;2023-02-21T02:47:06;97540.09;;;6.62;100.00
3796;BME280;1913;50.660;7.834;2023-02-21T02:49:35;97531.22;;;6.71;100.00
3796;BME280;1913;50.660;7.834;2023-02-21T02:52:04;97535.50;;;6.72;100.00
3796;BME280;1913;50.660;7.834;2023-02-21T02:54:31;97537.16;;;6.65;100.00
3796;BME280;1913;50.660;7.834;2023-02-21T02:56:56;97526.66;;;6.74;100.00
3796;BME280;1913;50.660;7.834;2023-02-21T02:59:24;97531.72;;;6.75;100.00
3796;BME280;1913;50.660;7.834;2023-02-21T03:02:13;97532.84;;;6.81;100.00
3796;BME280;1913;50.660;7.834;2023-02-21T03:04:58;97526.66;;;6.74;100.00
3796;BME280;1913;50.660;7.834;2023-02-21T03:13:11;97529.56;;;6.87;100.00
3796;BME280;1913;50.660;7.834;2023-02-21T03:15:44;97529.28;;;6.74;100.00
3796;BME280;1913;50.660;7.834;2023-02-21T03:18:27;97528.13;;;6.76;100.00
3796;BME280;1913;50.660;7.834;2023-02-21T03:20:56;97529.66;;;6.62;100.00
3796;BME280;1913;50.660;7.834;2023-02-21T03:23:25;97528.94;;;6.68;100.00
3796;BME280;1913;50.660;7.834;2023-02-21T03:25:56;97531.56;;;6.77;100.00
3796;BME280;1913;50.660;7.834;2023-02-21T03:28:23;97529.22;;;6.82;100.00
3796;BME280;1913;50.660;7.834;2023-02-21T03:30:52;97534.53;;;6.57;100.00
3796;BME280;1913;50.660;7.834;2023-02-21T03:33:18;97529.97;;;6.59;100.00
3796;BME280;1913;50.660;7.834;2023-02-21T03:35:44;97545.72;;;6.82;100.00
3796;BME280;1913;50.660;7.834;2023-02-21T03:38:09;97531.72;;;6.75;100.00
3796;BME280;1913;50.660;7.834;2023-02-21T03:40:36;97527.13;;;6.77;100.00
3796;BME280;1913;50.660;7.834;2023-02-21T03:43:02;97530.69;;;6.84;100.00
3796;BME280;1913;50.660;7.834;2023-02-21T03:45:31;97530.91;;;6.75;100.00
3796;BME280;1913;50.660;7.834;2023-02-21T03:47:56;97529.31;;;6.57;100.00
3796;BME280;1913;50.660;7.834;2023-02-21T03:50:22;97530.75;;;6.68;100.00
3796;BME280;1913;50.660;7.834;2023-02-21T03:52:47;97529.44;;;6.72;100.00
3796;BME280;1913;50.660;7.834;2023-02-21T03:55:13;97532.75;;;6.66;100.00
3796;BME280;1913;50.660;7.834;2023-02-21T03:57:38;97527.47;;;6.74;100.00
3796;BME280;1913;50.660;7.834;2023-02-21T04:00:04;97526.72;;;6.65;100.00
3796;BME280;1913;50.660;7.834;2023-02-21T04:02:30;97529.84;;;6.53;100.00
3796;BME280;1913;50.660;7.834;2023-02-21T04:04:55;97525.19;;;6.71;100.00
3796;BME280;1913;50.660;7.834;2023-02-21T04:07:20;97520.63;;;6.73;100.00
3796;BME280;1913;50.660;7.834;2023-02-21T04:09:47;97522.53;;;6.79;100.00
3796;BME280;1913;50.660;7.834;2023-02-21T04:12:13;97517.88;;;6.66;100.00
3796;BME280;1913;50.660;7.834;2023-02-21T04:14:38;97514.94;;;6.61;100.00
3796;BME280;1913;50.660;7.834;2023-02-21T04:17:04;97512.84;;;6.57;100.00
3796;BME280;1913;50.660;7.834;2023-02-21T04:19:29;97516.38;;;6.72;100.00
3796;BME280;1913;50.660;7.834;2023-02-21T04:21:55;97512.31;;;6.69;100.00
3796;BME280;1913;50.660;7.834;2023-02-21T04:24:21;97513.22;;;6.85;100.00
3796;BME280;1913;50.660;7.834;2023-02-21T04:26:46;97514.22;;;6.84;100.00
3796;BME280;1913;50.660;7.834;2023-02-21T04:29:12;97512.56;;;6.83;100.00
3796;BME280;1913;50.660;7.834;2023-02-21T04:31:40;97519.91;;;6.87;100.00
3796;BME280;1913;50.660;7.834;2023-02-21T04:34:06;97514.50;;;6.89;100.00
3796;BME280;1913;50.660;7.834;2023-02-21T04:36:31;97513.31;;;7.00;100.00
3796;BME280;1913;50.660;7.834;2023-02-21T04:38:57;97514.63;;;6.95;100.00
3796;BME280;1913;50.660;7.834;2023-02-21T04:41:22;97526.31;;;7.08;100.00
3796;BME280;1913;50.660;7.834;2023-02-21T04:43:51;97533.19;;;7.09;100.00
3796;BME280;1913;50.660;7.834;2023-02-21T04:46:18;97532.66;;;7.13;100.00
3796;BME280;1913;50.660;7.834;2023-02-21T04:48:46;97526.91;;;6.95;100.00
3796;BME280;1913;50.660;7.834;2023-02-21T04:51:12;97523.59;;;7.01;100.00
3796;BME280;1913;50.660;7.834;2023-02-21T04:53:38;97523.81;;;6.91;100.00
3796;BME280;1913;50.660;7.834;2023-02-21T04:56:04;97524.63;;;6.92;100.00
3796;BME280;1913;50.660;7.834;2023-02-21T04:58:30;97523.00;;;6.91;100.00
3796;BME280;1913;50.660;7.834;2023-02-21T05:00:58;97523.00;;;6.91;100.00
3796;BME280;1913;50.660;7.834;2023-02-21T05:03:24;97521.00;;;6.93;100.00
3796;BME280;1913;50.660;7.834;2023-02-21T05:05:50;97521.34;;;6.90;100.00
3796;BME280;1913;50.660;7.834;2023-02-21T05:08:15;97518.38;;;7.01;100.00
3796;BME280;1913;50.660;7.834;2023-02-21T05:10:41;97516.91;;;6.99;100.00
3796;BME280;1913;50.660;7.834;2023-02-21T05:13:06;97515.53;;;6.80;100.00
3796;BME280;1913;50.660;7.834;2023-02-21T05:15:32;97516.09;;;6.98;100.00
3796;BME280;1913;50.660;7.834;2023-02-21T05:17:57;97511.16;;;7.03;100.00
3796;BME280;1913;50.660;7.834;2023-02-21T05:20:22;97517.63;;;6.84;100.00
3796;BME280;1913;50.660;7.834;2023-02-21T05:22:51;97514.16;;;6.92;100.00
3796;BME280;1913;50.660;7.834;2023-02-21T05:25:19;97513.31;;;7.00;100.00
3796;BME280;1913;50.660;7.834;2023-02-21T05:27:45;97513.72;;;7.11;100.00
3796;BME280;1913;50.660;7.834;2023-02-21T05:30:16;97506.88;;;7.10;100.00
3796;BME280;1913;50.660;7.834;2023-02-21T05:32:41;97510.63;;;7.16;100.00
3796;BME280;1913;50.660;7.834;2023-02-21T05:35:08;97508.63;;;7.18;100.00
3796;BME280;1913;50.660;7.834;2023-02-21T05:37:34;97506.13;;;7.25;100.00
3796;BME280;1913;50.660;7.834;2023-02-21T05:39:59;97508.88;;;7.31;100.00
3796;BME280;1913;50.660;7.834;2023-02-21T05:42:25;97514.09;;;7.31;100.00
3796;BME280;1913;50.660;7.834;2023-02-21T05:44:50;97510.34;;;7.34;100.00
3796;BME280;1913;50.660;7.834;2023-02-21T05:47:16;97511.22;;;7.26;100.00
3796;BME280;1913;50.660;7.834;2023-02-21T05:49:43;97497.22;;;7.11;100.00
3796;BME280;1913;50.660;7.834;2023-02-21T05:52:13;97499.97;;;7.17;100.00
3796;BME280;1913;50.660;7.834;2023-02-21T05:54:38;97511.00;;;7.05;100.00
3796;BME280;1913;50.660;7.834;2023-02-21T05:57:04;97504.59;;;7.15;100.00
3796;BME280;1913;50.660;7.834;2023-02-21T05:59:30;97511.91;;;7.20;100.00
3796;BME280;1913;50.660;7.834;2023-02-21T06:01:55;97507.94;;;7.24;100.00
3796;BME280;1913;50.660;7.834;2023-02-21T06:04:21;97503.66;;;7.31;100.00
3796;BME280;1913;50.660;7.834;2023-02-21T06:06:48;97510.69;;;7.31;100.00
3796;BME280;1913;50.660;7.834;2023-02-21T06:09:14;97511.09;;;7.19;100.00
3796;BME280;1913;50.660;7.834;2023-02-21T06:11:39;97512.16;;;7.02;100.00
3796;BME280;1913;50.660;7.834;2023-02-21T06:14:07;97518.41;;;6.93;100.00
3796;BME280;1913;50.660;7.834;2023-02-21T06:16:37;97518.47;;;7.16;100.00
3796;BME280;1913;50.660;7.834;2023-02-21T06:19:04;97510.31;;;7.11;100.00
3796;BME280;1913;50.660;7.834;2023-02-21T06:21:30;97516.13;;;7.21;100.00
3796;BME280;1913;50.660;7.834;2023-02-21T06:23:56;97505.00;;;7.27;100.00
3796;BME280;1913;50.660;7.834;2023-02-21T06:26:22;97502.31;;;7.12;100.00
3796;BME280;1913;50.660;7.834;2023-02-21T06:28:48;97500.63;;;7.19;100.00
3796;BME280;1913;50.660;7.834;2023-02-21T06:31:15;97505.13;;;7.26;100.00
3796;BME280;1913;50.660;7.834;2023-02-21T06:33:41;97499.91;;;7.26;100.00
3796;BME280;1913;50.660;7.834;2023-02-21T06:36:11;97505.25;;;7.32;100.00
3796;BME280;1913;50.660;7.834;2023-02-21T06:38:37;97506.38;;;7.38;100.00
3796;BME280;1913;50.660;7.834;2023-02-21T06:41:06;97500.97;;;7.39;100.00
3796;BME280;1913;50.660;7.834;2023-02-21T06:43:32;97504.50;;;7.47;100.00
3796;BME280;1913;50.660;7.834;2023-02-21T06:46:00;97491.97;;;7.42;100.00
3796;BME280;1913;50.660;7.834;2023-02-21T06:48:25;97504.03;;;7.43;100.00
3796;BME280;1913;50.660;7.834;2023-02-21T06:50:50;97499.41;;;7.53;100.00
3796;BME280;1913;50.660;7.834;2023-02-21T06:53:16;97500.13;;;7.47;100.00
3796;BME280;1913;50.660;7.834;2023-02-21T06:55:41;97497.97;;;7.51;100.00
3796;BME280;1913;50.660;7.834;2023-02-21T06:58:07;97498.06;;;7.57;100.00
3796;BME280;1913;50.660;7.834;2023-02-21T07:00:32;97499.34;;;7.61;100.00
3796;BME280;1913;50.660;7.834;2023-02-21T07:02:58;97500.91;;;7.71;100.00
3796;BME280;1913;50.660;7.834;2023-02-21T07:05:23;97496.31;;;7.73;100.00
3796;BME280;1913;50.660;7.834;2023-02-21T07:07:49;97506.06;;;7.79;100.00
3796;BME280;1913;50.660;7.834;2023-02-21T07:10:14;97508.34;;;7.59;100.00
3796;BME280;1913;50.660;7.834;2023-02-21T07:12:40;97515.31;;;7.66;100.00
3796;BME280;1913;50.660;7.834;2023-02-21T07:15:06;97513.91;;;7.79;100.00
3796;BME280;1913;50.660;7.834;2023-02-21T07:17:31;97510.94;;;7.82;100.00
3796;BME280;1913;50.660;7.834;2023-02-21T07:19:57;97514.94;;;7.92;100.00
3796;BME280;1913;50.660;7.834;2023-02-21T07:22:23;97515.59;;;7.95;100.00
3796;BME280;1913;50.660;7.834;2023-02-21T07:24:52;97512.41;;;7.99;100.00
3796;BME280;1913;50.660;7.834;2023-02-21T07:27:18;97516.31;;;8.03;100.00
3796;BME280;1913;50.660;7.834;2023-02-21T07:29:48;97515.59;;;8.09;100.00
3796;BME280;1913;50.660;7.834;2023-02-21T07:32:15;97506.97;;;7.86;100.00
3796;BME280;1913;50.660;7.834;2023-02-21T07:34:40;97508.88;;;7.92;100.00
3796;BME280;1913;50.660;7.834;2023-02-21T07:37:06;97507.09;;;7.55;100.00
3796;BME280;1913;50.660;7.834;2023-02-21T07:39:32;97505.63;;;7.52;100.00
3796;BME280;1913;50.660;7.834;2023-02-21T07:41:57;97511.50;;;7.54;100.00
3796;BME280;1913;50.660;7.834;2023-02-21T07:44:23;97501.84;;;7.55;100.00
3796;BME280;1913;50.660;7.834;2023-02-21T07:46:48;97503.81;;;7.53;100.00
3796;BME280;1913;50.660;7.834;2023-02-21T07:49:14;97503.25;;;7.65;100.00
3796;BME280;1913;50.660;7.834;2023-02-21T07:51:39;97508.31;;;7.82;100.00
3796;BME280;1913;50.660;7.834;2023-02-21T07:54:05;97509.22;;;7.74;100.00
3796;BME280;1913;50.660;7.834;2023-02-21T07:56:30;97507.06;;;7.78;100.00
3796;BME280;1913;50.660;7.834;2023-02-21T07:58:56;97514.31;;;7.67;100.00
3796;BME280;1913;50.660;7.834;2023-02-21T08:01:23;97510.44;;;7.63;100.00
3796;BME280;1913;50.660;7.834;2023-02-21T08:03:49;97511.09;;;7.65;100.00
3796;BME280;1913;50.660;7.834;2023-02-21T08:06:15;97513.06;;;7.63;100.00
3796;BME280;1913;50.660;7.834;2023-02-21T08:08:40;97516.78;;;7.46;100.00
3796;BME280;1913;50.660;7.834;2023-02-21T08:11:06;97524.50;;;7.62;100.00
3796;BME280;1913;50.660;7.834;2023-02-21T08:13:31;97524.59;;;7.54;100.00
3796;BME280;1913;50.660;7.834;2023-02-21T08:15:57;97523.00;;;7.45;100.00
3796;BME280;1913;50.660;7.834;2023-02-21T08:18:23;97517.56;;;7.55;100.00
3796;BME280;1913;50.660;7.834;2023-02-21T08:20:53;97519.88;;;7.73;100.00
3796;BME280;1913;50.660;7.834;2023-02-21T08:23:20;97521.56;;;7.65;100.00
3796;BME280;1913;50.660;7.834;2023-02-21T08:25:46;97516.63;;;7.85;100.00
3796;BME280;1913;50.660;7.834;2023-02-21T08:28:12;97518.22;;;8.09;100.00
3796;BME280;1913;50.660;7.834;2023-02-21T08:30:38;97521.28;;;8.13;100.00
3796;BME280;1913;50.660;7.834;2023-02-21T08:33:03;97515.16;;;8.21;100.00
3796;BME280;1913;50.660;7.834;2023-02-21T08:35:29;97516.66;;;8.00;100.00
3796;BME280;1913;50.660;7.834;2023-02-21T08:37:54;97524.38;;;8.16;100.00
3796;BME280;1913;50.660;7.834;2023-02-21T08:40:28;97527.59;;;8.42;100.00
3796;BME280;1913;50.660;7.834;2023-02-21T08:42:55;97516.47;;;8.54;100.00
3796;BME280;1913;50.660;7.834;2023-02-21T08:45:22;97512.19;;;8.24;100.00
3796;BME280;1913;50.660;7.834;2023-02-21T08:47:48;97511.69;;;8.43;100.00
3796;BME280;1913;50.660;7.834;2023-02-21T08:50:16;97509.34;;;8.48;100.00
3796;BME280;1913;50.660;7.834;2023-02-21T08:52:44;97511.47;;;8.74;100.00
3796;BME280;1913;50.660;7.834;2023-02-21T08:55:10;97514.94;;;8.60;100.00
3796;BME280;1913;50.660;7.834;2023-02-21T08:57:36;97510.59;;;8.67;100.00
3796;BME280;1913;50.660;7.834;2023-02-21T09:00:03;97516.53;;;8.31;100.00
3796;BME280;1913;50.660;7.834;2023-02-21T09:02:31;97506.16;;;8.23;100.00
3796;BME280;1913;50.660;7.834;2023-02-21T09:04:57;97509.94;;;8.35;100.00
3796;BME280;1913;50.660;7.834;2023-02-21T09:07:22;97513.66;;;8.71;100.00
3796;BME280;1913;50.660;7.834;2023-02-21T09:09:51;97508.63;;;8.69;100.00
3796;BME280;1913;50.660;7.834;2023-02-21T09:12:16;97509.63;;;9.04;100.00
3796;BME280;1913;50.660;7.834;2023-02-21T09:14:43;97507.72;;;9.13;100.00
3796;BME280;1913;50.660;7.834;2023-02-21T09:17:11;97514.56;;;9.29;100.00
3796;BME280;1913;50.660;7.834;2023-02-21T09:19:37;97509.31;;;9.29;100.00
3796;BME280;1913;50.660;7.834;2023-02-21T09:22:03;97512.66;;;9.23;100.00
3796;BME280;1913;50.660;7.834;2023-02-21T09:24:30;97509.53;;;9.34;100.00
3796;BME280;1913;50.660;7.834;2023-02-21T09:26:57;97508.06;;;9.68;100.00
3796;BME280;1913;50.660;7.834;2023-02-21T09:29:25;97508.09;;;9.53;100.00
3796;BME280;1913;50.660;7.834;2023-02-21T09:31:51;97511.75;;;9.52;100.00
3796;BME280;1913;50.660;7.834;2023-02-21T09:34:17;97505.69;;;9.51;100.00
3796;BME280;1913;50.660;7.834;2023-02-21T09:36:42;97506.13;;;9.33;100.00
3796;BME280;1913;50.660;7.834;2023-02-21T09:39:08;97499.72;;;9.21;100.00
3796;BME280;1913;50.660;7.834;2023-02-21T09:41:35;97509.75;;;9.54;100.00
3796;BME280;1913;50.660;7.834;2023-02-21T09:44:03;97506.03;;;9.91;100.00
3796;BME280;1913;50.660;7.834;2023-02-21T09:46:40;97497.00;;;10.00;100.00
3796;BME280;1913;50.660;7.834;2023-02-21T09:49:14;97500.31;;;10.37;100.00
3796;BME280;1913;50.660;7.834;2023-02-21T09:51:42;97505.56;;;10.37;100.00
3796;BME280;1913;50.660;7.834;2023-02-21T09:56:49;97501.06;;;10.03;100.00
3796;BME280;1913;50.660;7.834;2023-02-21T09:59:14;97503.09;;;10.29;100.00
3796;BME280;1913;50.660;7.834;2023-02-21T10:01:52;97504.22;;;10.48;100.00
3796;BME280;1913;50.660;7.834;2023-02-21T10:07:14;97488.38;;;10.76;100.00
3796;BME280;1913;50.660;7.834;2023-02-21T10:09:53;97488.72;;;11.14;100.00
3796;BME280;1913;50.660;7.834;2023-02-21T10:12:23;97490.56;;;11.34;100.00
3796;BME280;1913;50.660;7.834;2023-02-21T10:17:43;97487.00;;;11.88;100.00
3796;BME280;1913;50.660;7.834;2023-02-21T10:20:15;97486.78;;;11.83;100.00
3796;BME280;1913;50.660;7.834;2023-02-21T10:22:45;97491.84;;;11.71;100.00
3796;BME280;1913;50.660;7.834;2023-02-21T10:25:23;97489.41;;;11.56;100.00
3796;BME280;1913;50.660;7.834;2023-02-21T10:27:51;97487.19;;;11.60;100.00
3796;BME280;1913;50.660;7.834;2023-02-21T10:30:34;97489.63;;;11.74;100.00
3796;BME280;1913;50.660;7.834;2023-02-21T10:33:00;97490.19;;;12.36;100.00
3796;BME280;1913;50.660;7.834;2023-02-21T10:35:32;97490.31;;;12.68;100.00
3796;BME280;1913;50.660;7.834;2023-02-21T10:37:59;97482.88;;;12.45;100.00
3796;BME280;1913;50.660;7.834;2023-02-21T10:46:30;97493.66;;;12.23;100.00
3796;BME280;1913;50.660;7.834;2023-02-21T10:49:16;97489.41;;;12.09;100.00
3796;BME280;1913;50.660;7.834;2023-02-21T10:51:44;97486.78;;;11.83;100.00
3796;BME280;1913;50.660;7.834;2023-02-21T10:54:23;97488.78;;;12.27;100.00
3796;BME280;1913;50.660;7.834;2023-02-21T10:56:50;97489.69;;;12.66;100.00
3796;BME280;1913;50.660;7.834;2023-02-21T10:59:29;97483.13;;;12.95;100.00
3796;BME280;1913;50.660;7.834;2023-02-21T11:01:56;97490.25;;;13.33;100.00
3796;BME280;1913;50.660;7.834;2023-02-21T11:04:25;97489.22;;;13.34;100.00
3796;BME280;1913;50.660;7.834;2023-02-21T11:14:33;97482.59;;;14.06;100.00
3796;BME280;1913;50.660;7.834;2023-02-21T11:19:44;97477.63;;;14.60;100.00
3796;BME280;1913;50.660;7.834;2023-02-21T11:22:10;97475.44;;;15.36;100.00
3796;BME280;1913;50.660;7.834;2023-02-21T11:27:31;97463.00;;;16.25;98.60
3796;BME280;1913;50.660;7.834;2023-02-21T11:29:58;97466.03;;;16.92;91.11
3796;BME280;1913;50.660;7.834;2023-02-21T11:32:39;97458.19;;;16.97;84.25
3796;BME280;1913;50.660;7.834;2023-02-21T11:35:27;97461.09;;;17.41;79.85
3796;BME280;1913;50.660;7.834;2023-02-21T11:37:56;97455.84;;;17.92;80.24
3796;BME280;1913;50.660;7.834;2023-02-21T11:43:31;97450.19;;;18.83;63.59
3796;BME280;1913;50.660;7.834;2023-02-21T11:51:52;97437.31;;;20.25;56.52
3796;BME280;1913;50.660;7.834;2023-02-21T11:54:26;97430.69;;;20.91;54.45
3796;BME280;1913;50.660;7.834;2023-02-21T12:08:02;97419.31;;;21.31;49.22
3796;BME280;1913;50.660;7.834;2023-02-21T12:13:43;97411.84;;;21.54;50.17
3796;BME280;1913;50.660;7.834;2023-02-21T12:35:30;97368.63;;;20.00;54.23
3796;BME280;1913;50.660;7.834;2023-02-21T12:40:50;97356.50;;;21.44;49.01
3796;BME280;1913;50.660;7.834;2023-02-21T12:46:14;97350.28;;;21.94;47.36
3796;BME280;1913;50.660;7.834;2023-02-21T12:51:23;97346.28;;;20.90;48.76
3796;BME280;1913;50.660;7.834;2023-02-21T12:53:59;97340.69;;;21.12;49.79
3796;BME280;1913;50.660;7.834;2023-02-21T12:56:41;97348.19;;;21.71;48.23
3796;BME280;1913;50.660;7.834;2023-02-21T12:59:21;97344.88;;;22.25;47.22
3796;BME280;1913;50.660;7.834;2023-02-21T13:01:58;97340.19;;;21.40;48.02
3796;BME280;1913;50.660;7.834;2023-02-21T13:04:50;97334.56;;;21.67;47.91
3796;BME280;1913;50.660;7.834;2023-02-21T13:07:35;97334.03;;;21.55;47.18
3796;BME280;1913;50.660;7.834;2023-02-21T13:10:05;97332.69;;;21.58;48.75
3796;BME280;1913;50.660;7.834;2023-02-21T13:15:22;97326.66;;;20.43;48.83
3796;BME280;1913;50.660;7.834;2023-02-21T13:20:20;97324.09;;;20.79;49.61
3796;BME280;1913;50.660;7.834;2023-02-21T13:22:47;97317.75;;;20.17;51.09
3796;BME280;1913;50.660;7.834;2023-02-21T13:27:52;97312.50;;;20.43;54.02
3796;BME280;1913;50.660;7.834;2023-02-21T13:30:27;97312.91;;;21.18;50.46
3796;BME280;1913;50.660;7.834;2023-02-21T13:33:01;97310.34;;;20.40;51.00
3796;BME280;1913;50.660;7.834;2023-02-21T13:35:36;97294.81;;;20.26;51.90
3796;BME280;1913;50.660;7.834;2023-02-21T13:38:05;97295.03;;;19.62;54.95
3796;BME280;1913;50.660;7.834;2023-02-21T13:43:15;97283.94;;;20.48;52.10
3796;BME280;1913;50.660;7.834;2023-02-21T13:45:43;97284.31;;;21.03;51.45
3796;BME280;1913;50.660;7.834;2023-02-21T13:50:45;97277.81;;;19.80;53.10
3796;BME280;1913;50.660;7.834;2023-02-21T13:53:16;97270.72;;;19.96;54.78
3796;BME280;1913;50.660;7.834;2023-02-21T14:00:56;97264.00;;;20.76;49.58
3796;BME280;1913;50.660;7.834;2023-02-21T14:21:45;97259.47;;;20.72;50.60
3796;BME280;1913;50.660;7.834;2023-02-21T14:24:18;97259.44;;;20.51;50.39
3796;BME280;1913;50.660;7.834;2023-02-21T14:34:36;97256.13;;;18.10;60.03
3796;BME280;1913;50.660;7.834;2023-02-21T14:37:34;97251.53;;;18.82;61.04
3796;BME280;1913;50.660;7.834;2023-02-21T14:48:40;97247.03;;;18.55;65.79
3796;BME280;1913;50.660;7.834;2023-02-21T15:03:14;97236.88;;;18.52;65.18
3796;BME280;1913;50.660;7.834;2023-02-21T15:05:57;97228.53;;;17.89;63.84
3796;BME280;1913;50.660;7.834;2023-02-21T15:08:26;97236.94;;;17.64;68.30
3796;BME280;1913;50.660;7.834;2023-02-21T15:10:54;97228.41;;;17.79;69.71
3796;BME280;1913;50.660;7.834;2023-02-21T15:13:28;97231.41;;;17.88;68.63
3796;BME280;1913;50.660;7.834;2023-02-21T15:15:59;97235.22;;;18.19;69.49
3796;BME280;1913;50.660;7.834;2023-02-21T15:18:27;97227.47;;;18.17;66.98
3796;BME280;1913;50.660;7.834;2023-02-21T15:21:17;97221.28;;;18.61;64.58
3796;BME280;1913;50.660;7.834;2023-02-21T15:23:45;97224.59;;;18.73;63.77
3796;BME280;1913;50.660;7.834;2023-02-21T15:26:26;97217.28;;;18.63;63.20
3796;BME280;1913;50.660;7.834;2023-02-21T15:29:04;97228.41;;;17.62;66.38
3796;BME280;1913;50.660;7.834;2023-02-21T15:31:35;97218.19;;;17.93;65.39
3796;BME280;1913;50.660;7.834;2023-02-21T15:34:03;97219.72;;;18.11;62.80
3796;BME280;1913;50.660;7.834;2023-02-21T15:36:29;97212.44;;;18.01;60.60
3796;BME280;1913;50.660;7.834;2023-02-21T15:39:03;97217.03;;;17.45;61.39
3796;BME280;1913;50.660;7.834;2023-02-21T15:47:07;97215.09;;;17.02;67.48
3796;BME280;1913;50.660;7.834;2023-02-21T15:49:36;97222.00;;;16.86;68.10
3796;BME280;1913;50.660;7.834;2023-02-21T15:52:03;97210.63;;;16.57;71.15
3796;BME280;1913;50.660;7.834;2023-02-21T15:54:31;97215.41;;;16.43;72.62
3796;BME280;1913;50.660;7.834;2023-02-21T15:59:27;97216.88;;;16.50;75.59
3796;BME280;1913;50.660;7.834;2023-02-21T16:02:25;97211.50;;;16.17;76.07
3796;BME280;1913;50.660;7.834;2023-02-21T16:04:52;97212.22;;;15.84;81.33
3796;BME280;1913;50.660;7.834;2023-02-21T16:07:34;97208.44;;;16.08;81.91
3796;BME280;1913;50.660;7.834;2023-02-21T16:10:12;97213.75;;;16.08;80.17
3796;BME280;1913;50.660;7.834;2023-02-21T16:12:41;97215.63;;;16.24;78.18
3796;BME280;1913;50.660;7.834;2023-02-21T16:17:43;97206.91;;;15.84;79.93
3796;BME280;1913;50.660;7.834;2023-02-21T16:20:19;97204.69;;;15.28;84.73
3796;BME280;1913;50.660;7.834;2023-02-21T16:22:50;97203.19;;;15.44;86.33
3796;BME280;1913;50.660;7.834;2023-02-21T16:25:22;97199.97;;;15.07;89.28
3796;BME280;1913;50.660;7.834;2023-02-21T16:27:51;97204.91;;;14.92;91.38
3796;BME280;1913;50.660;7.834;2023-02-21T16:32:51;97204.88;;;14.26;98.21
3796;BME280;1913;50.660;7.834;2023-02-21T16:35:21;97212.44;;;14.23;98.39
3796;BME280;1913;50.660;7.834;2023-02-21T16:37:52;97203.41;;;14.00;100.00
3796;BME280;1913;50.660;7.834;2023-02-21T16:40:26;97205.69;;;13.97;100.00
3796;BME280;1913;50.660;7.834;2023-02-21T16:42:53;97205.59;;;13.73;100.00